createdAt,value
2023-03-16T00:01:57.227Z,0.36
2023-03-16T00:04:32.029Z,0.40
2023-03-16T00:07:06.854Z,0.40
2023-03-16T00:09:42.021Z,0.40
2023-03-16T00:12:20.181Z,0.42
2023-03-16T00:14:55.437Z,0.50
2023-03-16T00:17:29.971Z,0.50
2023-03-16T00:20:07.134Z,0.50
2023-03-16T00:22:42.072Z,0.50
2023-03-16T00:25:17.812Z,0.48
2023-03-16T00:27:52.527Z,0.46
2023-03-16T00:30:27.481Z,0.40
2023-03-16T00:33:02.313Z,0.40
2023-03-16T00:35:36.698Z,0.30
2023-03-16T00:38:11.033Z,0.30
2023-03-16T00:40:45.254Z,0.30
2023-03-16T00:43:19.398Z,0.30
2023-03-16T00:45:58.910Z,0.30
2023-03-16T00:48:35.830Z,0.30
2023-03-16T00:51:14.879Z,0.30
2023-03-16T00:53:50.476Z,0.38
2023-03-16T00:56:25.448Z,0.40
2023-03-16T00:58:59.795Z,0.40
2023-03-16T01:01:34.139Z,0.40
2023-03-16T01:04:09.499Z,0.40
2023-03-16T01:06:43.808Z,0.42
2023-03-16T01:09:18.795Z,0.48
2023-03-16T01:11:54.643Z,0.50
2023-03-16T01:14:29.138Z,0.50
2023-03-16T01:17:06.352Z,0.50
2023-03-16T01:19:41.887Z,0.50
2023-03-16T01:22:17.649Z,0.50
2023-03-16T01:24:52.392Z,0.50
2023-03-16T01:27:26.875Z,0.50
2023-03-16T01:30:02.339Z,0.50
2023-03-16T01:32:37.489Z,0.50
2023-03-16T01:35:13.897Z,0.46
2023-03-16T01:37:48.230Z,0.42
2023-03-16T01:40:26.325Z,0.40
2023-03-16T01:43:08.532Z,0.40
2023-03-16T01:46:19.868Z,0.40
2023-03-16T01:49:07.027Z,0.40
2023-03-16T01:51:52.154Z,0.40
2023-03-16T01:54:32.685Z,0.40
2023-03-16T01:57:12.959Z,0.36
2023-03-16T01:59:58.011Z,0.30
2023-03-16T02:02:36.164Z,0.30
2023-03-16T02:05:17.165Z,0.30
2023-03-16T02:07:59.352Z,0.30
2023-03-16T02:10:35.091Z,0.30
2023-03-16T02:13:09.718Z,0.30
2023-03-16T02:15:44.071Z,0.22
2023-03-16T02:18:19.877Z,0.20
2023-03-16T02:21:06.210Z,0.20
2023-03-16T02:23:43.643Z,0.20
2023-03-16T02:26:28.178Z,0.20
2023-03-16T02:29:21.857Z,0.24
2023-03-16T02:31:59.993Z,0.26
2023-03-16T02:34:35.318Z,0.20
2023-03-16T02:37:12.061Z,0.20
2023-03-16T02:39:46.895Z,0.20
2023-03-16T02:42:27.454Z,0.20
2023-03-16T02:45:05.627Z,0.20
2023-03-16T02:47:46.016Z,0.20
2023-03-16T02:50:21.367Z,0.20
2023-03-16T02:52:55.726Z,0.20
2023-03-16T02:55:30.326Z,0.20
2023-03-16T02:58:04.988Z,0.20
2023-03-16T03:00:39.444Z,0.20
2023-03-16T03:03:14.542Z,0.14
2023-03-16T03:05:48.842Z,0.20
2023-03-16T03:08:23.644Z,0.20
2023-03-16T03:10:58.514Z,0.20
2023-03-16T03:13:33.278Z,0.10
2023-03-16T03:16:08.825Z,0.10
2023-03-16T03:18:43.459Z,0.10
2023-03-16T03:21:18.212Z,0.10
2023-03-16T03:23:53.865Z,0.06
2023-03-16T03:26:28.217Z,0.00
2023-03-16T03:29:03.774Z,0.00
2023-03-16T03:31:40.161Z,0.00
2023-03-16T03:34:14.780Z,0.00
2023-03-16T03:36:49.112Z,0.00
2023-03-16T03:39:23.837Z,-0.10
2023-03-16T03:41:58.658Z,-0.10
2023-03-16T03:44:34.742Z,-0.10
2023-03-16T03:47:09.522Z,-0.10
2023-03-16T03:49:43.999Z,-0.10
2023-03-16T03:52:18.844Z,-0.10
2023-03-16T03:54:53.376Z,-0.10
2023-03-16T03:57:27.568Z,-0.10
2023-03-16T04:00:01.948Z,-0.10
2023-03-16T04:02:48.807Z,-0.10
2023-03-16T04:05:31.984Z,-0.20
2023-03-16T04:08:07.067Z,-0.20
2023-03-16T04:10:41.916Z,-0.20
2023-03-16T04:13:16.391Z,-0.20
2023-03-16T04:15:54.377Z,-0.20
2023-03-16T04:18:38.490Z,-0.20
2023-03-16T04:21:18.894Z,-0.20
2023-03-16T04:23:54.895Z,-0.20
2023-03-16T04:26:34.327Z,-0.22
2023-03-16T04:29:10.468Z,-0.30
2023-03-16T04:31:45.413Z,-0.40
2023-03-16T04:34:24.849Z,-0.40
2023-03-16T04:37:00.823Z,-0.40
2023-03-16T04:39:35.446Z,-0.40
2023-03-16T04:42:10.917Z,-0.50
2023-03-16T04:44:45.387Z,-0.50
2023-03-16T04:47:23.229Z,-0.50
2023-03-16T04:49:57.520Z,-0.50
2023-03-16T04:52:32.618Z,-0.50
2023-03-16T04:55:09.955Z,-0.60
2023-03-16T04:57:44.777Z,-0.60
2023-03-16T05:00:21.953Z,-0.60
2023-03-16T05:03:07.504Z,-0.56
2023-03-16T05:05:42.536Z,-0.54
2023-03-16T05:08:18.388Z,-0.50
2023-03-16T05:10:59.873Z,-0.50
2023-03-16T05:13:36.910Z,-0.50
2023-03-16T05:16:12.259Z,-0.46
2023-03-16T05:18:47.890Z,-0.40
2023-03-16T05:21:22.819Z,-0.40
2023-03-16T05:24:02.141Z,-0.34
2023-03-16T05:26:36.740Z,-0.30
2023-03-16T05:29:11.709Z,-0.26
2023-03-16T05:31:47.855Z,-0.20
2023-03-16T05:34:24.593Z,-0.16
2023-03-16T05:36:59.625Z,-0.10
2023-03-16T05:39:34.603Z,0.00
2023-03-16T05:42:09.704Z,0.00
2023-03-16T05:44:53.632Z,0.10
2023-03-16T05:47:36.695Z,0.10
2023-03-16T05:50:18.094Z,0.20
2023-03-16T05:52:53.049Z,0.22
2023-03-16T05:55:30.200Z,0.30
2023-03-16T05:58:07.063Z,0.38
2023-03-16T06:00:42.665Z,0.40
2023-03-16T06:03:24.999Z,0.48
2023-03-16T06:05:59.875Z,0.50
2023-03-16T06:08:37.819Z,0.60
2023-03-16T06:11:15.776Z,0.60
2023-03-16T06:13:49.848Z,0.70
2023-03-16T06:16:24.470Z,0.76
2023-03-16T06:18:59.957Z,0.86
2023-03-16T06:21:35.318Z,0.90
2023-03-16T06:24:16.053Z,1.00
2023-03-16T06:26:50.340Z,1.10
2023-03-16T06:29:25.538Z,1.20
2023-03-16T06:32:00.142Z,1.20
2023-03-16T06:34:35.869Z,1.30
2023-03-16T06:37:12.559Z,1.30
2023-03-16T06:39:47.300Z,1.40
2023-03-16T06:42:23.995Z,1.50
2023-03-16T06:44:58.259Z,1.58
2023-03-16T06:47:33.468Z,1.60
2023-03-16T06:50:10.330Z,1.68
2023-03-16T06:52:44.985Z,1.74
2023-03-16T06:55:19.849Z,1.80
2023-03-16T06:57:54.877Z,1.90
2023-03-16T07:00:30.925Z,1.90
2023-03-16T07:03:05.390Z,2.00
2023-03-16T07:05:40.943Z,2.10
2023-03-16T07:08:21.463Z,2.20
2023-03-16T07:11:06.820Z,2.30
2023-03-16T07:13:42.133Z,2.40
2023-03-16T07:16:17.420Z,2.42
2023-03-16T07:18:52.282Z,2.50
2023-03-16T07:21:28.095Z,2.60
2023-03-16T07:24:03.026Z,2.60
2023-03-16T07:26:39.142Z,2.70
2023-03-16T07:29:17.211Z,2.80
2023-03-16T07:31:53.742Z,2.90
2023-03-16T07:34:31.634Z,3.00
2023-03-16T07:37:10.049Z,3.10
2023-03-16T07:39:46.367Z,3.20
2023-03-16T07:42:26.094Z,3.22
2023-03-16T07:45:14.498Z,3.30
2023-03-16T07:47:53.178Z,3.40
2023-03-16T07:50:50.586Z,3.50
2023-03-16T07:53:25.307Z,3.58
2023-03-16T07:56:09.369Z,3.62
2023-03-16T07:58:48.450Z,3.80
2023-03-16T08:01:25.046Z,3.90
2023-03-16T08:04:01.379Z,4.04
2023-03-16T08:06:37.739Z,4.20
2023-03-16T08:09:15.787Z,4.30
2023-03-16T08:11:54.248Z,4.46
2023-03-16T08:14:36.843Z,4.50
2023-03-16T08:17:19.016Z,4.60
2023-03-16T08:19:55.190Z,4.62
2023-03-16T08:22:31.120Z,4.78
2023-03-16T08:25:12.269Z,4.90
2023-03-16T08:27:50.379Z,5.00
2023-03-16T08:30:27.369Z,5.06
2023-03-16T08:33:23.009Z,5.20
2023-03-16T08:36:02.851Z,5.30
2023-03-16T08:38:50.938Z,5.40
2023-03-16T08:41:35.793Z,5.50
2023-03-16T08:44:16.314Z,5.70
2023-03-16T08:46:52.104Z,5.80
2023-03-16T08:49:27.425Z,5.96
2023-03-16T08:52:23.879Z,6.10
2023-03-16T08:55:03.590Z,6.20
2023-03-16T08:57:40.553Z,6.40
2023-03-16T09:00:18.364Z,6.56
2023-03-16T09:02:53.417Z,6.80
2023-03-16T09:05:32.814Z,6.98
2023-03-16T09:08:08.983Z,7.10
2023-03-16T09:10:45.232Z,7.32
2023-03-16T09:13:20.357Z,7.50
2023-03-16T09:15:55.743Z,7.80
2023-03-16T09:18:32.876Z,8.00
2023-03-16T09:21:13.362Z,8.18
2023-03-16T09:23:49.170Z,8.30
2023-03-16T09:26:25.577Z,8.42
2023-03-16T09:29:01.172Z,8.60
2023-03-16T09:31:37.900Z,8.80
2023-03-16T09:34:15.918Z,9.00
2023-03-16T09:36:50.906Z,9.10
2023-03-16T09:39:26.195Z,9.22
2023-03-16T09:42:10.230Z,9.40
2023-03-16T09:45:01.524Z,9.50
2023-03-16T09:47:38.992Z,9.50
2023-03-16T09:50:30.269Z,9.60
2023-03-16T09:53:25.449Z,9.80
2023-03-16T09:56:09.421Z,9.90
2023-03-16T09:58:47.449Z,10.10
2023-03-16T10:01:40.711Z,10.10
2023-03-16T10:04:36.744Z,10.16
2023-03-16T10:07:32.366Z,10.54
2023-03-16T10:10:28.467Z,10.80
2023-03-16T10:13:06.911Z,10.76
2023-03-16T10:15:43.470Z,11.22
2023-03-16T10:18:30.713Z,11.50
2023-03-16T10:21:13.378Z,11.50
2023-03-16T10:23:55.760Z,11.70
2023-03-16T10:26:39.207Z,12.10
2023-03-16T10:29:18.478Z,12.18
2023-03-16T10:31:53.563Z,11.98
2023-03-16T10:34:30.833Z,11.76
2023-03-16T10:37:09.253Z,11.70
2023-03-16T10:39:49.140Z,11.90
2023-03-16T10:42:27.378Z,12.10
2023-03-16T10:45:04.669Z,12.32
2023-03-16T10:47:39.492Z,12.20
2023-03-16T10:50:27.964Z,12.00
2023-03-16T10:53:05.021Z,12.20
2023-03-16T10:55:49.763Z,12.64
2023-03-16T10:58:35.801Z,13.20
2023-03-16T11:01:21.628Z,13.56
2023-03-16T11:03:58.951Z,13.60
2023-03-16T11:06:36.455Z,13.70
2023-03-16T11:09:24.945Z,13.36
2023-03-16T11:12:01.073Z,12.90
2023-03-16T11:14:46.285Z,12.96
2023-03-16T11:17:33.194Z,13.42
2023-03-16T11:20:17.853Z,13.32
2023-03-16T11:22:53.159Z,12.86
2023-03-16T11:25:38.700Z,12.72
2023-03-16T11:28:26.217Z,13.24
2023-03-16T11:31:18.591Z,13.50
2023-03-16T11:33:55.612Z,13.60
2023-03-16T11:36:45.557Z,13.80
2023-03-16T11:39:40.473Z,13.94
2023-03-16T11:42:45.696Z,13.70
2023-03-16T11:45:34.960Z,13.96
2023-03-16T11:48:38.433Z,14.30
2023-03-16T11:51:33.486Z,14.72
2023-03-16T11:54:36.844Z,15.30
2023-03-16T11:57:33.329Z,15.20
2023-03-16T12:00:28.623Z,15.08
2023-03-16T12:03:28.921Z,14.44
2023-03-16T12:06:23.330Z,14.34
2023-03-16T12:09:51.200Z,14.90
2023-03-16T12:12:42.832Z,15.44
2023-03-16T12:15:44.991Z,15.22
2023-03-16T12:18:27.525Z,15.08
2023-03-16T12:21:13.593Z,14.34
2023-03-16T12:23:58.655Z,13.88
2023-03-16T12:26:40.806Z,13.28
2023-03-16T12:29:30.987Z,12.90
2023-03-16T12:32:20.130Z,12.70
2023-03-16T12:35:04.390Z,13.16
2023-03-16T12:37:47.013Z,13.88
2023-03-16T12:40:46.506Z,13.80
2023-03-16T12:43:47.683Z,13.32
2023-03-16T12:46:38.270Z,12.74
2023-03-16T12:49:21.209Z,12.42
2023-03-16T12:52:05.472Z,12.10
2023-03-16T12:54:50.209Z,12.52
2023-03-16T12:57:28.919Z,12.70
2023-03-16T13:00:09.324Z,13.32
2023-03-16T13:02:51.856Z,14.52
2023-03-16T13:05:39.275Z,15.30
2023-03-16T13:08:24.297Z,14.76
2023-03-16T13:11:14.357Z,14.20
2023-03-16T13:14:11.103Z,13.70
2023-03-16T13:16:48.084Z,13.66
2023-03-16T13:19:32.710Z,14.60
2023-03-16T13:22:29.800Z,15.46
2023-03-16T13:25:26.383Z,16.06
2023-03-16T13:28:07.599Z,16.60
2023-03-16T13:30:50.349Z,16.48
2023-03-16T13:33:28.467Z,16.30
2023-03-16T13:36:06.325Z,15.90
2023-03-16T13:38:42.194Z,15.60
2023-03-16T13:41:21.222Z,14.96
2023-03-16T13:43:56.607Z,14.70
2023-03-16T13:46:34.536Z,15.58
2023-03-16T13:49:13.065Z,16.58
2023-03-16T13:51:49.828Z,16.80
2023-03-16T13:54:31.871Z,17.82
2023-03-16T13:57:12.884Z,18.52
2023-03-16T13:59:48.489Z,18.28
2023-03-16T14:02:25.686Z,17.56
2023-03-16T14:05:09.739Z,16.36
2023-03-16T14:07:47.290Z,15.34
2023-03-16T14:10:23.193Z,14.54
2023-03-16T14:13:07.871Z,13.94
2023-03-16T14:15:42.875Z,13.46
2023-03-16T14:18:24.845Z,13.44
2023-03-16T14:21:00.359Z,14.28
2023-03-16T14:23:41.982Z,15.78
2023-03-16T14:26:19.866Z,17.18
2023-03-16T14:29:07.368Z,18.20
2023-03-16T14:31:43.295Z,18.70
2023-03-16T14:34:34.062Z,17.70
2023-03-16T14:37:14.885Z,17.22
2023-03-16T14:40:06.138Z,16.84
2023-03-16T14:42:42.270Z,17.88
2023-03-16T14:45:20.449Z,18.66
2023-03-16T14:47:55.843Z,19.40
2023-03-16T14:50:31.204Z,19.64
2023-03-16T14:53:07.782Z,20.20
2023-03-16T14:55:43.300Z,20.54
2023-03-16T14:58:18.174Z,21.06
2023-03-16T15:00:54.814Z,21.40
2023-03-16T15:03:38.105Z,21.50
2023-03-16T15:06:12.438Z,21.90
2023-03-16T15:08:51.117Z,21.96
2023-03-16T15:11:26.285Z,22.74
2023-03-16T15:14:14.866Z,23.50
2023-03-16T15:16:49.224Z,23.90
2023-03-16T15:19:23.331Z,24.06
2023-03-16T15:22:04.612Z,23.96
2023-03-16T15:24:39.193Z,23.68
2023-03-16T15:27:27.846Z,23.40
2023-03-16T15:30:02.554Z,23.40
2023-03-16T15:32:37.287Z,23.20
2023-03-16T15:35:12.720Z,23.20
2023-03-16T15:37:47.854Z,23.24
2023-03-16T15:40:26.833Z,23.40
2023-03-16T15:43:01.805Z,23.96
2023-03-16T15:45:36.218Z,24.50
2023-03-16T15:48:11.163Z,24.40
2023-03-16T15:50:53.542Z,24.80
2023-03-16T15:53:35.307Z,24.50
2023-03-16T15:56:14.029Z,24.50
2023-03-16T15:58:50.928Z,24.14
2023-03-16T16:01:28.464Z,23.24
2023-03-16T16:04:04.366Z,22.38
2023-03-16T16:06:38.674Z,21.90
2023-03-16T16:09:13.266Z,21.68
2023-03-16T16:11:49.238Z,21.22
2023-03-16T16:14:28.190Z,20.48
2023-03-16T16:17:02.568Z,19.70
2023-03-16T16:19:36.673Z,18.74
2023-03-16T16:22:14.476Z,17.70
2023-03-16T16:24:48.866Z,16.76
2023-03-16T16:27:24.044Z,15.80
2023-03-16T16:29:58.433Z,15.04
2023-03-16T16:32:33.054Z,14.70
2023-03-16T16:35:16.112Z,14.52
2023-03-16T16:37:50.818Z,14.68
2023-03-16T16:40:37.845Z,14.20
2023-03-16T16:43:23.204Z,13.70
2023-03-16T16:45:58.033Z,13.12
2023-03-16T16:48:38.658Z,12.52
2023-03-16T16:51:21.705Z,11.88
2023-03-16T16:53:58.023Z,11.20
2023-03-16T16:56:36.826Z,10.66
2023-03-16T16:59:21.583Z,10.20
2023-03-16T17:01:57.611Z,9.78
2023-03-16T17:04:33.762Z,9.38
2023-03-16T17:07:14.239Z,9.00
2023-03-16T17:09:48.630Z,8.70
2023-03-16T17:12:25.720Z,8.40
2023-03-16T17:15:00.443Z,8.04
2023-03-16T17:17:34.964Z,7.70
2023-03-16T17:20:19.489Z,7.40
2023-03-16T17:22:54.842Z,7.20
2023-03-16T17:25:32.621Z,6.90
2023-03-16T17:28:10.590Z,6.70
2023-03-16T17:30:48.074Z,6.50
2023-03-16T17:33:23.172Z,6.30
2023-03-16T17:35:57.489Z,6.10
2023-03-16T17:38:33.010Z,6.00
2023-03-16T17:41:08.023Z,5.80
2023-03-16T17:43:42.470Z,5.62
2023-03-16T17:46:18.393Z,5.50
2023-03-16T17:48:54.654Z,5.40
2023-03-16T17:51:31.268Z,5.20
2023-03-16T17:54:06.027Z,5.10
2023-03-16T17:56:41.760Z,5.00
2023-03-16T17:59:23.753Z,4.84
2023-03-16T18:01:58.369Z,4.70
2023-03-16T18:04:33.808Z,4.50
2023-03-16T18:07:12.470Z,4.40
2023-03-16T18:09:47.161Z,4.30
2023-03-16T18:12:21.880Z,4.20
2023-03-16T18:14:58.789Z,4.10
2023-03-16T18:17:36.057Z,4.00
2023-03-16T18:20:24.115Z,3.90
2023-03-16T18:22:58.993Z,3.80
2023-03-16T18:25:40.403Z,3.78
2023-03-16T18:28:16.138Z,3.70
2023-03-16T18:30:53.748Z,3.60
2023-03-16T18:33:32.772Z,3.60
2023-03-16T18:36:16.541Z,3.58
2023-03-16T18:38:53.317Z,3.54
2023-03-16T18:41:30.583Z,3.50
2023-03-16T18:44:18.579Z,3.50
2023-03-16T18:46:59.800Z,3.40
2023-03-16T18:49:38.455Z,3.40
2023-03-16T18:52:21.087Z,3.30
2023-03-16T18:54:57.895Z,3.30
2023-03-16T18:57:33.446Z,3.20
2023-03-16T19:00:11.368Z,3.18
2023-03-16T19:02:53.914Z,3.10
2023-03-16T19:05:35.983Z,3.10
2023-03-16T19:08:15.839Z,3.02
2023-03-16T19:10:56.479Z,3.00
2023-03-16T19:13:31.536Z,3.00
2023-03-16T19:16:09.215Z,2.96
2023-03-16T19:18:42.520Z,2.90
2023-03-16T19:21:23.023Z,2.90
2023-03-16T19:24:04.392Z,2.80
2023-03-16T19:26:39.753Z,2.70
2023-03-16T19:29:20.055Z,2.62
2023-03-16T19:31:55.974Z,2.60
2023-03-16T19:34:31.233Z,2.50
2023-03-16T19:37:05.763Z,2.50
2023-03-16T19:39:40.170Z,2.40
2023-03-16T19:42:26.567Z,2.40
2023-03-16T19:45:01.485Z,2.38
2023-03-16T19:47:38.143Z,2.30
2023-03-16T19:50:20.370Z,2.30
2023-03-16T19:52:56.207Z,2.22
2023-03-16T19:55:35.230Z,2.20
2023-03-16T19:58:21.093Z,2.16
2023-03-16T20:00:56.751Z,2.16
2023-03-16T20:03:32.994Z,2.18
2023-03-16T20:06:10.204Z,2.16
2023-03-16T20:08:47.395Z,2.12
2023-03-16T20:11:27.378Z,2.10
2023-03-16T20:14:03.639Z,2.10
2023-03-16T20:16:40.324Z,2.08
2023-03-16T20:19:22.048Z,2.00
2023-03-16T20:21:56.538Z,2.00
2023-03-16T20:24:30.920Z,2.00
2023-03-16T20:27:05.880Z,2.00
2023-03-16T20:29:40.390Z,2.00
2023-03-16T20:32:23.338Z,1.90
2023-03-16T20:34:58.389Z,1.90
2023-03-16T20:37:34.076Z,1.80
2023-03-16T20:40:10.636Z,1.80
2023-03-16T20:42:47.548Z,1.70
2023-03-16T20:45:30.938Z,1.60
2023-03-16T20:48:15.835Z,1.50
2023-03-16T20:50:50.552Z,1.40
2023-03-16T20:53:25.800Z,1.40
2023-03-16T20:56:00.940Z,1.34
2023-03-16T20:58:42.356Z,1.30
2023-03-16T21:01:21.783Z,1.32
2023-03-16T21:04:00.151Z,1.30
2023-03-16T21:06:35.681Z,1.30
2023-03-16T21:09:10.463Z,1.30
2023-03-16T21:11:46.425Z,1.20
2023-03-16T21:14:25.396Z,1.14
2023-03-16T21:17:00.351Z,1.10
2023-03-16T21:19:35.242Z,1.00
2023-03-16T21:22:27.121Z,1.00
2023-03-16T21:25:02.856Z,1.00
2023-03-16T21:27:39.751Z,1.00
2023-03-16T21:30:27.313Z,1.06
2023-03-16T21:33:02.941Z,1.00
2023-03-16T21:35:39.570Z,1.00
2023-03-16T21:38:19.642Z,0.98
2023-03-16T21:40:55.521Z,0.90
2023-03-16T21:43:31.786Z,0.90
2023-03-16T21:46:16.260Z,0.90
2023-03-16T21:48:53.666Z,0.90
2023-03-16T21:51:31.971Z,0.82
2023-03-16T21:54:09.189Z,0.80
2023-03-16T21:56:43.901Z,0.80
2023-03-16T21:59:19.940Z,0.80
2023-03-16T22:02:02.084Z,0.82
2023-03-16T22:04:36.782Z,0.88
2023-03-16T22:07:15.492Z,0.90
2023-03-16T22:09:49.867Z,0.80
2023-03-16T22:12:24.058Z,0.80
2023-03-16T22:14:58.175Z,0.80
2023-03-16T22:17:33.607Z,0.80
2023-03-16T22:20:20.424Z,0.80
2023-03-16T22:22:55.912Z,0.76
2023-03-16T22:25:30.877Z,0.80
2023-03-16T22:28:12.704Z,0.80
2023-03-16T22:30:48.087Z,0.80
2023-03-16T22:33:29.882Z,0.80
2023-03-16T22:36:11.857Z,0.80
2023-03-16T22:38:48.931Z,0.70
2023-03-16T22:41:23.270Z,0.70
2023-03-16T22:43:57.374Z,0.70
2023-03-16T22:46:32.841Z,0.70
2023-03-16T22:49:14.252Z,0.80
2023-03-16T22:51:48.888Z,0.80
2023-03-16T22:54:28.371Z,0.80
2023-03-16T22:57:02.798Z,0.78
2023-03-16T22:59:37.814Z,0.78
2023-03-16T23:02:16.381Z,0.70
2023-03-16T23:04:50.517Z,0.70
2023-03-16T23:07:25.253Z,0.70
2023-03-16T23:09:59.701Z,0.70
2023-03-16T23:12:34.044Z,0.80
2023-03-16T23:15:21.873Z,0.80
2023-03-16T23:17:56.748Z,0.80
2023-03-16T23:20:34.240Z,0.80
2023-03-16T23:23:08.493Z,0.80
2023-03-16T23:25:43.367Z,0.70
2023-03-16T23:28:24.506Z,0.60
2023-03-16T23:30:58.913Z,0.60
2023-03-16T23:33:33.349Z,0.60
2023-03-16T23:36:13.175Z,0.50
2023-03-16T23:38:49.706Z,0.40
2023-03-16T23:41:26.672Z,0.32
2023-03-16T23:44:01.950Z,0.28
2023-03-16T23:46:37.052Z,0.20
2023-03-16T23:49:19.395Z,0.24
2023-03-16T23:51:57.115Z,0.24
2023-03-16T23:54:34.109Z,0.28
2023-03-16T23:57:09.676Z,0.30
2023-03-16T23:59:43.917Z,0.30
